createdAt,value
2017-12-26T00:00:37.357Z,89.70
2017-12-26T00:03:06.707Z,89.80
2017-12-26T00:05:36.793Z,89.80
2017-12-26T00:08:13.558Z,90.00
2017-12-26T00:10:43.934Z,90.20
2017-12-26T00:13:13.168Z,90.10
2017-12-26T00:15:42.479Z,90.30
2017-12-26T00:18:16.548Z,90.50
2017-12-26T00:20:45.643Z,90.60
2017-12-26T00:23:14.821Z,90.80
2017-12-26T00:25:44.278Z,90.80
2017-12-26T00:28:16.893Z,90.80
2017-12-26T00:30:58.757Z,90.80
2017-12-26T00:33:34.666Z,90.70
2017-12-26T00:36:13.991Z,90.70
2017-12-26T00:38:45.070Z,90.60
2017-12-26T00:41:14.126Z,90.60
2017-12-26T00:43:43.193Z,90.70
2017-12-26T00:46:12.707Z,90.70
2017-12-26T00:48:42.414Z,90.70
2017-12-26T00:51:11.811Z,90.80
2017-12-26T00:53:40.827Z,90.80
2017-12-26T00:56:10.199Z,90.80
2017-12-26T00:58:39.428Z,91.00
2017-12-26T01:01:08.904Z,91.00
2017-12-26T01:03:38.250Z,91.10
2017-12-26T01:06:08.226Z,91.10
2017-12-26T01:08:37.572Z,91.10
2017-12-26T01:11:06.887Z,91.20
2017-12-26T01:13:36.945Z,91.40
2017-12-26T01:16:06.411Z,91.40
2017-12-26T01:18:36.466Z,91.50
2017-12-26T01:21:05.567Z,91.50
2017-12-26T01:23:34.760Z,91.50
2017-12-26T01:26:03.972Z,91.50
2017-12-26T01:28:50.753Z,91.50
2017-12-26T01:31:26.963Z,91.50
2017-12-26T01:33:56.811Z,91.40
2017-12-26T01:36:25.976Z,91.40
2017-12-26T01:38:56.091Z,91.30
2017-12-26T01:41:26.507Z,91.20
2017-12-26T01:43:55.749Z,91.20
2017-12-26T01:46:27.544Z,91.20
2017-12-26T01:48:58.662Z,91.20
2017-12-26T01:51:32.574Z,91.10
2017-12-26T01:54:06.739Z,91.10
2017-12-26T01:56:49.600Z,91.10
2017-12-26T01:59:24.697Z,91.10
2017-12-26T02:01:56.013Z,91.10
2017-12-26T02:04:28.840Z,91.00
2017-12-26T02:06:59.653Z,91.00
2017-12-26T02:09:39.042Z,91.00
2017-12-26T02:12:09.270Z,91.00
2017-12-26T02:14:39.011Z,91.10
2017-12-26T02:17:08.236Z,91.10
2017-12-26T02:19:38.419Z,90.90
2017-12-26T02:22:07.734Z,90.90
2017-12-26T02:24:38.693Z,90.90
2017-12-26T02:27:10.457Z,90.80
2017-12-26T02:29:40.380Z,90.90
2017-12-26T02:32:09.873Z,90.90
2017-12-26T02:34:40.668Z,91.00
2017-12-26T02:37:20.453Z,91.40
2017-12-26T02:39:56.517Z,91.20
2017-12-26T02:42:29.501Z,91.20
2017-12-26T02:45:00.710Z,91.30
2017-12-26T02:47:31.311Z,91.30
2017-12-26T02:50:01.604Z,91.30
2017-12-26T02:52:30.878Z,91.30
2017-12-26T02:55:00.617Z,91.30
2017-12-26T02:57:30.466Z,91.30
2017-12-26T02:59:59.514Z,91.30
2017-12-26T03:02:28.638Z,91.50
2017-12-26T03:04:57.745Z,91.10
2017-12-26T03:07:27.858Z,91.20
2017-12-26T03:09:58.257Z,91.20
2017-12-26T03:12:28.177Z,91.20
2017-12-26T03:14:57.208Z,91.20
2017-12-26T03:17:27.128Z,91.20
2017-12-26T03:19:56.946Z,91.10
2017-12-26T03:22:26.653Z,90.90
2017-12-26T03:24:57.368Z,90.90
2017-12-26T03:27:27.253Z,90.60
2017-12-26T03:29:57.067Z,90.60
2017-12-26T03:32:26.813Z,90.50
2017-12-26T03:34:56.333Z,90.40
2017-12-26T03:37:25.902Z,90.30
2017-12-26T03:39:56.039Z,90.30
2017-12-26T03:42:25.629Z,90.10
2017-12-26T03:44:55.392Z,90.10
2017-12-26T03:47:25.256Z,90.10
2017-12-26T03:49:55.261Z,90.10
2017-12-26T03:52:24.267Z,90.00
2017-12-26T03:54:54.123Z,90.10
2017-12-26T03:57:23.566Z,90.10
2017-12-26T03:59:53.976Z,90.00
2017-12-26T04:02:23.127Z,90.00
2017-12-26T04:04:53.041Z,89.80
2017-12-26T04:07:22.774Z,89.70
2017-12-26T04:09:52.186Z,89.60
2017-12-26T04:12:29.670Z,89.40
2017-12-26T04:14:59.406Z,89.20
2017-12-26T04:17:28.925Z,89.10
2017-12-26T04:20:07.238Z,88.80
2017-12-26T04:22:41.172Z,88.60
2017-12-26T04:25:18.028Z,88.20
2017-12-26T04:27:47.427Z,87.80
2017-12-26T04:30:22.066Z,87.70
2017-12-26T04:33:05.797Z,87.30
2017-12-26T04:35:35.206Z,86.80
2017-12-26T04:38:05.416Z,86.50
2017-12-26T04:40:34.881Z,86.60
2017-12-26T04:43:03.877Z,86.50
2017-12-26T04:45:33.399Z,86.30
2017-12-26T04:48:02.606Z,86.20
2017-12-26T04:50:31.888Z,86.00
2017-12-26T04:53:00.988Z,85.80
2017-12-26T04:55:30.181Z,85.50
2017-12-26T04:57:59.225Z,85.00
2017-12-26T05:00:28.395Z,84.70
2017-12-26T05:02:58.077Z,84.50
2017-12-26T05:05:27.412Z,84.20
2017-12-26T05:07:56.658Z,84.10
2017-12-26T05:10:26.238Z,84.00
2017-12-26T05:12:57.331Z,84.00
2017-12-26T05:15:26.430Z,84.00
2017-12-26T05:17:55.688Z,83.70
2017-12-26T05:20:26.063Z,83.60
2017-12-26T05:22:55.646Z,83.60
2017-12-26T05:25:24.772Z,83.40
2017-12-26T05:27:54.399Z,83.00
2017-12-26T05:30:23.886Z,82.90
2017-12-26T05:32:53.070Z,82.90
2017-12-26T05:35:22.408Z,82.80
2017-12-26T05:37:51.986Z,82.80
2017-12-26T05:40:21.388Z,82.50
2017-12-26T05:42:50.942Z,82.40
2017-12-26T05:45:21.205Z,82.30
2017-12-26T05:47:51.002Z,82.30
2017-12-26T05:50:20.648Z,82.10
2017-12-26T05:52:50.142Z,81.70
2017-12-26T05:55:20.265Z,81.10
2017-12-26T05:57:50.377Z,80.50
2017-12-26T06:00:19.800Z,79.90
2017-12-26T06:02:49.520Z,79.50
2017-12-26T06:05:18.817Z,78.90
2017-12-26T06:07:48.115Z,78.70
2017-12-26T06:10:17.129Z,78.50
2017-12-26T06:12:47.058Z,78.10
2017-12-26T06:15:17.616Z,78.20
2017-12-26T06:17:47.077Z,78.10
2017-12-26T06:20:26.822Z,78.20
2017-12-26T06:22:56.972Z,79.20
2017-12-26T06:25:28.797Z,81.70
2017-12-26T06:27:58.352Z,82.40
2017-12-26T06:30:28.591Z,84.30
2017-12-26T06:32:58.935Z,86.70
2017-12-26T06:35:29.350Z,86.70
2017-12-26T06:38:00.180Z,87.30
2017-12-26T06:40:29.704Z,88.00
2017-12-26T06:42:59.281Z,88.30
2017-12-26T06:45:28.326Z,88.40
2017-12-26T06:47:58.759Z,89.00
2017-12-26T06:50:30.287Z,89.40
2017-12-26T06:52:59.978Z,89.40
2017-12-26T06:55:29.494Z,88.70
2017-12-26T06:57:59.004Z,88.70
2017-12-26T07:00:28.683Z,89.20
2017-12-26T07:02:59.444Z,89.20
2017-12-26T07:05:28.765Z,88.20
2017-12-26T07:07:58.512Z,87.80
2017-12-26T07:10:28.264Z,88.30
2017-12-26T07:12:57.889Z,88.50
2017-12-26T07:15:27.547Z,88.80
2017-12-26T07:17:57.293Z,89.00
2017-12-26T07:20:30.747Z,89.20
2017-12-26T07:22:59.902Z,90.00
2017-12-26T07:25:29.283Z,89.80
2017-12-26T07:27:58.660Z,90.10
2017-12-26T07:30:27.873Z,90.20
2017-12-26T07:32:56.952Z,90.50
2017-12-26T07:35:27.033Z,90.90
2017-12-26T07:37:57.324Z,91.40
2017-12-26T07:40:26.333Z,91.40
2017-12-26T07:42:55.701Z,91.90
2017-12-26T07:45:25.024Z,92.30
2017-12-26T07:47:54.062Z,92.50
2017-12-26T07:50:23.160Z,92.90
2017-12-26T07:52:52.247Z,93.00
2017-12-26T07:55:22.090Z,93.50
2017-12-26T07:57:51.131Z,93.50
2017-12-26T08:00:21.102Z,94.00
2017-12-26T08:02:50.232Z,94.00
2017-12-26T08:05:19.388Z,94.00
2017-12-26T08:07:49.359Z,94.30
2017-12-26T08:10:18.885Z,94.50
2017-12-26T08:12:48.658Z,94.50
2017-12-26T08:15:18.534Z,94.90
2017-12-26T08:17:47.555Z,95.00
2017-12-26T08:20:16.791Z,95.20
2017-12-26T08:22:46.683Z,95.40
2017-12-26T08:25:15.923Z,95.30
2017-12-26T08:27:45.619Z,95.70
2017-12-26T08:30:14.877Z,95.60
2017-12-26T08:32:44.479Z,95.90
2017-12-26T08:35:14.676Z,95.80
2017-12-26T08:37:43.695Z,95.80
2017-12-26T08:40:13.505Z,96.40
2017-12-26T08:42:42.570Z,96.40
2017-12-26T08:45:11.633Z,96.30
2017-12-26T08:47:41.846Z,96.10
2017-12-26T08:50:10.989Z,96.10
2017-12-26T08:52:40.301Z,96.30
2017-12-26T08:55:09.461Z,96.30
2017-12-26T08:57:39.416Z,96.70
2017-12-26T09:00:09.699Z,96.40
2017-12-26T09:02:39.466Z,95.80
2017-12-26T09:05:08.504Z,95.80
2017-12-26T09:07:38.350Z,95.80
2017-12-26T09:10:07.341Z,95.80
2017-12-26T09:12:36.690Z,95.30
2017-12-26T09:15:05.724Z,95.40
2017-12-26T09:17:34.899Z,95.30
2017-12-26T09:20:05.005Z,95.80
2017-12-26T09:22:34.300Z,95.80
2017-12-26T09:25:03.569Z,96.00
2017-12-26T09:27:33.528Z,95.30
2017-12-26T09:30:10.673Z,95.80
2017-12-26T09:32:39.761Z,95.80
2017-12-26T09:35:09.453Z,95.50
2017-12-26T09:37:38.643Z,95.00
2017-12-26T09:40:07.678Z,94.90
2017-12-26T09:42:36.742Z,95.30
2017-12-26T09:45:05.979Z,95.30
2017-12-26T09:47:35.650Z,95.00
2017-12-26T09:50:04.644Z,95.00
2017-12-26T09:52:33.714Z,93.40
2017-12-26T09:55:03.737Z,92.30
2017-12-26T09:57:33.922Z,92.20
2017-12-26T10:00:04.611Z,92.50
2017-12-26T10:02:34.920Z,92.50
2017-12-26T10:05:04.094Z,92.00
2017-12-26T10:07:34.011Z,91.30
2017-12-26T10:10:03.801Z,91.30
2017-12-26T10:12:32.794Z,91.00
2017-12-26T10:15:02.957Z,90.30
2017-12-26T10:17:31.921Z,90.30
2017-12-26T10:20:01.821Z,89.20
2017-12-26T10:22:30.872Z,89.20
2017-12-26T10:25:00.380Z,90.10
2017-12-26T10:27:29.810Z,90.20
2017-12-26T10:29:58.994Z,90.60
2017-12-26T10:32:28.266Z,90.80
